Time;durP1;ratioP1;P1;durP2;ratioP2;P2;SDS_P1;SDS_P2;PMS_P1;PMS_P2;Temp;Humidity;BMP_temperature;BMP_pressure;BME280_temperature;BME280_humidity;BME280_pressure;Samples;Min_cycle;Max_cycle;Signal;HPM_P1;HPM_P2
2020/11/09 00:00:15;;;;;;;5.41;4.65;;;;;;;19.99;55.73;101170.86;;;;-53
2020/11/09 00:03:15;;;;;;;4.95;4.51;;;;;;;19.97;55.74;101166.35;;;;-53
2020/11/09 00:06:15;;;;;;;5.57;4.59;;;;;;;19.97;55.70;101172.78;;;;-52
2020/11/09 00:09:15;;;;;;;4.65;4.25;;;;;;;19.95;55.68;101175.11;;;;-52
2020/11/09 00:12:15;;;;;;;5.27;4.67;;;;;;;19.93;55.81;101170.44;;;;-53
2020/11/09 00:15:21;;;;;;;5.05;4.49;;;;;;;19.93;55.81;101169.95;;;;-52
2020/11/09 00:18:15;;;;;;;4.85;4.37;;;;;;;19.91;55.72;101164.22;;;;-53
2020/11/09 00:21:15;;;;;;;5.31;4.49;;;;;;;19.89;55.81;101163.05;;;;-51
2020/11/09 00:24:15;;;;;;;4.61;4.21;;;;;;;19.88;55.80;101167.77;;;;-51
2020/11/09 00:27:15;;;;;;;5.05;4.55;;;;;;;19.87;55.75;101169.77;;;;-51
2020/11/09 00:30:15;;;;;;;4.71;4.31;;;;;;;19.87;55.82;101174.33;;;;-50
2020/11/09 00:33:15;;;;;;;5.09;4.39;;;;;;;19.85;55.76;101167.86;;;;-50
2020/11/09 00:36:15;;;;;;;4.69;4.29;;;;;;;19.84;55.88;101170.22;;;;-58
2020/11/09 00:39:15;;;;;;;4.82;4.30;;;;;;;19.82;55.87;101171.41;;;;-57
2020/11/09 00:42:15;;;;;;;4.86;4.37;;;;;;;19.81;55.80;101180.89;;;;-58
2020/11/09 00:45:15;;;;;;;4.73;4.30;;;;;;;19.80;55.85;101179.67;;;;-51
2020/11/09 00:48:15;;;;;;;5.13;4.64;;;;;;;19.79;55.83;101178.01;;;;-51
2020/11/09 00:51:15;;;;;;;4.63;4.23;;;;;;;19.78;55.83;101179.47;;;;-53
2020/11/09 00:54:16;;;;;;;4.68;4.23;;;;;;;19.77;55.92;101175.86;;;;-53
2020/11/09 00:57:15;;;;;;;5.07;4.43;;;;;;;19.76;55.78;101181.23;;;;-58
2020/11/09 01:00:15;;;;;;;4.62;4.22;;;;;;;19.75;55.84;101180.88;;;;-57
2020/11/09 01:03:15;;;;;;;4.76;4.19;;;;;;;19.73;55.90;101178.80;;;;-53
2020/11/09 01:06:15;;;;;;;4.89;4.47;;;;;;;19.73;55.77;101178.07;;;;-53
2020/11/09 01:09:15;;;;;;;4.55;4.15;;;;;;;19.71;55.87;101177.55;;;;-53
2020/11/09 01:12:15;;;;;;;4.69;4.29;;;;;;;19.70;55.95;101175.41;;;;-57
2020/11/09 01:15:15;;;;;;;4.93;4.43;;;;;;;19.69;55.80;101172.12;;;;-58
2020/11/09 01:18:15;;;;;;;4.60;4.19;;;;;;;19.67;55.83;101173.17;;;;-57
2020/11/09 01:21:15;;;;;;;4.67;4.18;;;;;;;19.66;55.97;101173.70;;;;-57
2020/11/09 01:24:15;;;;;;;4.88;4.09;;;;;;;19.66;55.85;101176.14;;;;-52
2020/11/09 01:27:15;;;;;;;4.59;4.19;;;;;;;19.65;55.92;101177.91;;;;-53
2020/11/09 01:30:15;;;;;;;4.85;4.36;;;;;;;19.64;55.92;101177.58;;;;-53
2020/11/09 01:33:15;;;;;;;5.11;4.23;;;;;;;19.63;55.95;101178.95;;;;-52
2020/11/09 01:36:15;;;;;;;4.68;4.28;;;;;;;19.62;56.03;101180.22;;;;-52
2020/11/09 01:39:15;;;;;;;4.71;4.24;;;;;;;19.61;55.97;101187.22;;;;-51
2020/11/09 01:42:16;;;;;;;4.65;4.25;;;;;;;19.59;56.10;101187.02;;;;-51
2020/11/09 01:45:15;;;;;;;4.84;4.37;;;;;;;19.59;56.07;101185.60;;;;-51
2020/11/09 01:48:15;;;;;;;4.77;4.37;;;;;;;19.58;55.98;101178.93;;;;-50
2020/11/09 01:51:15;;;;;;;4.71;4.13;;;;;;;19.57;55.98;101179.98;;;;-51
2020/11/09 01:54:15;;;;;;;4.77;4.37;;;;;;;19.56;56.04;101172.87;;;;-50
2020/11/09 01:57:15;;;;;;;4.78;4.28;;;;;;;19.54;56.01;101164.80;;;;-52
2020/11/09 02:00:15;;;;;;;4.59;4.17;;;;;;;19.53;56.01;101159.75;;;;-52
2020/11/09 02:03:15;;;;;;;4.50;4.09;;;;;;;19.53;55.99;101161.63;;;;-53
2020/11/09 02:06:15;;;;;;;5.43;4.44;;;;;;;19.52;55.97;101170.94;;;;-54
2020/11/09 02:09:15;;;;;;;4.87;4.37;;;;;;;19.51;56.04;101168.55;;;;-53
2020/11/09 02:12:15;;;;;;;4.19;3.79;;;;;;;19.51;55.95;101168.33;;;;-53
2020/11/09 02:15:15;;;;;;;4.69;4.07;;;;;;;19.49;56.00;101167.56;;;;-51
2020/11/09 02:18:15;;;;;;;4.87;4.18;;;;;;;19.49;55.99;101172.69;;;;-51
2020/11/09 02:25:15;;;;;;;4.48;4.08;;;;;;;19.46;56.06;101165.78;;;;-51
2020/11/09 02:28:15;;;;;;;4.71;4.27;;;;;;;19.46;56.04;101166.68;;;;-51
2020/11/09 02:31:15;;;;;;;5.29;4.28;;;;;;;19.44;55.99;101161.97;;;;-51
2020/11/09 02:34:15;;;;;;;4.63;4.21;;;;;;;19.44;56.04;101158.35;;;;-51
2020/11/09 02:37:15;;;;;;;4.29;3.89;;;;;;;19.42;56.08;101160.62;;;;-50
2020/11/09 02:40:15;;;;;;;4.45;4.05;;;;;;;19.42;56.11;101158.31;;;;-57
2020/11/09 02:43:15;;;;;;;4.96;4.09;;;;;;;19.41;56.00;101152.70;;;;-56
2020/11/09 02:46:15;;;;;;;4.56;4.14;;;;;;;19.40;56.02;101149.91;;;;-53
2020/11/09 02:49:15;;;;;;;4.59;4.19;;;;;;;19.39;56.12;101154.05;;;;-53
2020/11/09 02:52:15;;;;;;;4.33;3.93;;;;;;;19.39;56.04;101150.31;;;;-54
2020/11/09 02:55:15;;;;;;;4.51;4.11;;;;;;;19.38;56.07;101150.31;;;;-51
2020/11/09 02:58:15;;;;;;;4.57;4.17;;;;;;;19.38;56.08;101147.92;;;;-52
2020/11/09 03:01:15;;;;;;;5.07;3.99;;;;;;;19.36;56.03;101145.56;;;;-52
2020/11/09 03:04:15;;;;;;;4.43;4.03;;;;;;;19.37;56.04;101142.31;;;;-56
2020/11/09 03:07:15;;;;;;;4.53;4.13;;;;;;;19.36;56.04;101136.09;;;;-57
2020/11/09 03:10:15;;;;;;;4.66;4.26;;;;;;;19.35;56.02;101142.03;;;;-57
2020/11/09 03:13:15;;;;;;;4.65;4.06;;;;;;;19.35;56.04;101141.46;;;;-57
2020/11/09 03:16:15;;;;;;;4.53;4.13;;;;;;;19.34;56.08;101145.69;;;;-57
2020/11/09 03:19:15;;;;;;;4.57;4.17;;;;;;;19.34;56.07;101144.76;;;;-58
2020/11/09 03:22:15;;;;;;;4.69;4.24;;;;;;;19.33;56.04;101136.47;;;;-51
2020/11/09 03:25:15;;;;;;;4.65;4.25;;;;;;;19.32;56.10;101135.00;;;;-52
2020/11/09 03:28:15;;;;;;;4.52;4.12;;;;;;;19.30;56.10;101135.94;;;;-52
2020/11/09 03:31:15;;;;;;;4.33;3.93;;;;;;;19.29;56.14;101134.20;;;;-56
2020/11/09 03:34:15;;;;;;;4.55;4.15;;;;;;;19.29;56.14;101136.97;;;;-57
2020/11/09 03:37:15;;;;;;;4.72;4.25;;;;;;;19.28;56.06;101133.80;;;;-56
2020/11/09 03:40:15;;;;;;;4.51;4.11;;;;;;;19.28;56.14;101137.34;;;;-57
2020/11/09 03:43:15;;;;;;;4.72;4.29;;;;;;;19.26;56.06;101139.85;;;;-57
2020/11/09 03:46:15;;;;;;;4.43;4.03;;;;;;;19.27;56.02;101148.30;;;;-58
2020/11/09 03:49:15;;;;;;;4.87;4.37;;;;;;;19.26;56.07;101149.60;;;;-57
2020/11/09 03:52:15;;;;;;;4.60;4.20;;;;;;;19.25;56.11;101153.47;;;;-57
2020/11/09 03:55:15;;;;;;;4.75;4.31;;;;;;;19.24;56.11;101151.11;;;;-51
2020/11/09 03:58:15;;;;;;;4.89;4.31;;;;;;;19.24;56.11;101150.78;;;;-51
2020/11/09 04:01:16;;;;;;;4.70;4.29;;;;;;;19.23;56.12;101148.06;;;;-51
2020/11/09 04:04:18;;;;;;;4.66;4.25;;;;;;;19.22;56.15;101150.09;;;;-51
2020/11/09 04:07:15;;;;;;;4.87;4.37;;;;;;;19.22;56.06;101151.80;;;;-51
2020/11/09 04:10:15;;;;;;;4.85;4.45;;;;;;;19.21;56.15;101154.28;;;;-51
2020/11/09 04:13:39;;;;;;;4.89;4.39;;;;;;;19.20;56.04;101152.58;;;;-51
2020/11/09 04:16:15;;;;;;;4.77;4.28;;;;;;;19.19;56.06;101153.03;;;;-51
2020/11/09 04:19:15;;;;;;;5.16;4.33;;;;;;;19.20;56.10;101154.60;;;;-53
2020/11/09 04:22:15;;;;;;;4.70;4.26;;;;;;;19.18;56.22;101158.06;;;;-53
2020/11/09 04:25:15;;;;;;;4.79;4.33;;;;;;;19.18;56.15;101154.56;;;;-54
2020/11/09 04:28:15;;;;;;;4.77;4.34;;;;;;;19.17;56.21;101154.12;;;;-56
2020/11/09 04:31:15;;;;;;;4.58;4.18;;;;;;;19.16;56.15;101151.69;;;;-56
2020/11/09 04:34:15;;;;;;;4.81;4.41;;;;;;;19.15;56.27;101151.66;;;;-57
2020/11/09 04:37:15;;;;;;;5.21;4.33;;;;;;;19.15;56.25;101149.05;;;;-56
2020/11/09 04:40:15;;;;;;;4.82;4.39;;;;;;;19.15;56.24;101147.54;;;;-52
2020/11/09 04:43:15;;;;;;;4.67;4.27;;;;;;;19.13;56.21;101143.11;;;;-52
2020/11/09 04:46:15;;;;;;;4.40;4.00;;;;;;;19.13;56.27;101145.72;;;;-52
2020/11/09 04:49:15;;;;;;;4.76;4.36;;;;;;;19.13;56.19;101149.82;;;;-52
2020/11/09 04:52:15;;;;;;;4.65;4.25;;;;;;;19.11;56.24;101147.62;;;;-51
2020/11/09 04:55:15;;;;;;;4.85;4.45;;;;;;;19.11;56.30;101140.12;;;;-52
2020/11/09 04:58:15;;;;;;;4.87;4.43;;;;;;;19.11;56.21;101142.31;;;;-51
2020/11/09 05:01:15;;;;;;;4.62;4.22;;;;;;;19.10;56.18;101142.39;;;;-52
2020/11/09 05:04:15;;;;;;;4.73;4.33;;;;;;;19.10;56.24;101137.27;;;;-54
2020/11/09 05:07:15;;;;;;;4.81;4.29;;;;;;;19.09;56.28;101132.77;;;;-51
2020/11/09 05:10:15;;;;;;;4.91;4.50;;;;;;;19.08;56.25;101132.11;;;;-51
2020/11/09 05:13:15;;;;;;;4.75;4.35;;;;;;;19.08;56.32;101137.16;;;;-57
2020/11/09 05:16:15;;;;;;;4.98;4.48;;;;;;;19.07;56.25;101138.73;;;;-51
2020/11/09 05:19:16;;;;;;;4.70;4.30;;;;;;;19.06;56.24;101142.56;;;;-50
2020/11/09 05:22:15;;;;;;;4.96;4.48;;;;;;;19.06;56.27;101140.04;;;;-50
2020/11/09 05:25:15;;;;;;;5.09;4.56;;;;;;;19.05;56.37;101139.71;;;;-50
2020/11/09 05:28:15;;;;;;;4.83;4.43;;;;;;;19.04;56.30;101138.95;;;;-51
2020/11/09 05:31:15;;;;;;;5.02;4.54;;;;;;;19.04;56.34;101135.53;;;;-50
2020/11/09 05:34:15;;;;;;;5.01;4.48;;;;;;;19.03;56.34;101138.78;;;;-51
2020/11/09 05:37:15;;;;;;;4.85;4.45;;;;;;;19.03;56.33;101140.23;;;;-51
2020/11/09 05:40:15;;;;;;;4.77;4.35;;;;;;;19.02;56.30;101142.80;;;;-51
2020/11/09 05:43:15;;;;;;;4.82;4.32;;;;;;;19.02;56.20;101150.61;;;;-51
2020/11/09 05:46:15;;;;;;;4.66;4.26;;;;;;;19.02;56.25;101154.09;;;;-51
2020/11/09 05:49:15;;;;;;;4.98;4.50;;;;;;;19.01;56.32;101151.41;;;;-53
2020/11/09 05:52:15;;;;;;;5.04;4.54;;;;;;;19.00;56.37;101145.36;;;;-56
2020/11/09 05:55:15;;;;;;;4.98;4.58;;;;;;;19.00;56.34;101145.61;;;;-56
2020/11/09 05:58:15;;;;;;;4.78;4.36;;;;;;;18.99;56.31;101149.59;;;;-57
2020/11/09 06:01:15;;;;;;;4.59;4.19;;;;;;;18.99;56.32;101158.19;;;;-54
2020/11/09 06:04:15;;;;;;;4.73;4.33;;;;;;;18.97;56.40;101160.67;;;;-53
2020/11/09 06:07:15;;;;;;;4.69;4.29;;;;;;;18.98;56.32;101157.42;;;;-54
2020/11/09 06:10:15;;;;;;;4.78;4.38;;;;;;;18.98;56.32;101162.70;;;;-57
2020/11/09 06:13:15;;;;;;;4.65;4.25;;;;;;;18.97;56.34;101165.30;;;;-56
2020/11/09 06:16:15;;;;;;;4.59;4.19;;;;;;;18.99;56.21;101167.78;;;;-52
2020/11/09 06:19:15;;;;;;;4.81;4.37;;;;;;;19.00;56.23;101169.32;;;;-52
2020/11/09 06:22:15;;;;;;;4.90;4.48;;;;;;;18.99;56.29;101168.43;;;;-51
2020/11/09 06:25:15;;;;;;;4.77;4.37;;;;;;;19.01;56.32;101173.88;;;;-51
2020/11/09 06:28:15;;;;;;;4.95;4.45;;;;;;;19.02;56.23;101174.00;;;;-52
2020/11/09 06:31:15;;;;;;;5.03;4.29;;;;;;;19.04;56.17;101178.02;;;;-52
2020/11/09 06:34:15;;;;;;;4.49;4.09;;;;;;;19.06;56.05;101184.23;;;;-53
2020/11/09 06:37:15;;;;;;;4.58;4.16;;;;;;;19.07;56.20;101182.53;;;;-54
2020/11/09 06:40:15;;;;;;;4.55;4.11;;;;;;;19.09;56.25;101188.98;;;;-56
2020/11/09 06:43:15;;;;;;;4.65;4.25;;;;;;;19.10;56.36;101185.45;;;;-51
2020/11/09 06:46:15;;;;;;;4.61;4.19;;;;;;;19.13;56.42;101187.20;;;;-51
2020/11/09 06:49:15;;;;;;;4.57;4.17;;;;;;;19.14;56.43;101191.45;;;;-50
2020/11/09 06:52:15;;;;;;;4.45;4.05;;;;;;;19.16;56.42;101196.37;;;;-57
2020/11/09 06:55:15;;;;;;;6.91;5.73;;;;;;;19.02;54.23;101198.12;;;;-57
2020/11/09 06:58:15;;;;;;;7.74;6.28;;;;;;;18.77;52.94;101199.61;;;;-54
2020/11/09 07:01:15;;;;;;;9.57;7.39;;;;;;;18.53;52.29;101198.22;;;;-50
2020/11/09 07:04:15;;;;;;;8.05;7.21;;;;;;;18.42;52.26;101206.23;;;;-54
2020/11/09 07:07:15;;;;;;;9.59;7.55;;;;;;;18.26;52.28;101206.02;;;;-53
2020/11/09 07:10:15;;;;;;;9.76;7.41;;;;;;;18.16;52.17;101208.56;;;;-54
2020/11/09 07:13:15;;;;;;;9.02;7.31;;;;;;;18.06;52.26;101210.03;;;;-51
2020/11/09 07:16:15;;;;;;;10.24;7.61;;;;;;;17.95;52.22;101208.69;;;;-50
2020/11/09 07:19:15;;;;;;;10.39;7.53;;;;;;;17.89;52.28;101208.89;;;;-50
2020/11/09 07:22:15;;;;;;;8.70;7.51;;;;;;;17.83;52.31;101207.44;;;;-51
2020/11/09 07:25:15;;;;;;;10.21;7.73;;;;;;;17.76;52.29;101212.11;;;;-54
2020/11/09 07:28:15;;;;;;;10.53;7.09;;;;;;;17.97;52.75;101211.08;;;;-53
2020/11/09 07:31:15;;;;;;;9.71;6.77;;;;;;;18.12;53.04;101212.13;;;;-53
2020/11/09 07:34:15;;;;;;;8.14;5.96;;;;;;;18.25;53.15;101214.05;;;;-56
2020/11/09 07:37:15;;;;;;;6.94;6.04;;;;;;;18.35;53.30;101210.55;;;;-51
2020/11/09 07:40:15;;;;;;;8.25;5.78;;;;;;;18.45;53.49;101209.80;;;;-51
2020/11/09 07:43:15;;;;;;;7.03;5.49;;;;;;;18.52;53.61;101203.63;;;;-51
2020/11/09 07:46:15;;;;;;;6.51;5.43;;;;;;;18.59;53.62;101200.84;;;;-50
2020/11/09 07:49:15;;;;;;;9.01;5.67;;;;;;;18.65;53.84;101202.92;;;;-50
2020/11/09 07:52:15;;;;;;;6.22;5.35;;;;;;;18.70;53.90;101208.56;;;;-51
2020/11/09 07:55:15;;;;;;;6.13;5.34;;;;;;;18.75;54.07;101205.02;;;;-50
2020/11/09 07:58:15;;;;;;;6.48;5.42;;;;;;;18.80;54.02;101204.44;;;;-51
2020/11/09 08:01:15;;;;;;;6.21;5.32;;;;;;;18.83;54.13;101204.40;;;;-50
2020/11/09 08:04:15;;;;;;;5.92;4.93;;;;;;;18.87;54.30;101201.81;;;;-50
2020/11/09 08:07:15;;;;;;;8.09;5.35;;;;;;;18.88;54.29;101197.95;;;;-50
2020/11/09 08:10:15;;;;;;;5.41;4.91;;;;;;;18.91;54.31;101196.94;;;;-50
2020/11/09 08:13:15;;;;;;;5.86;4.99;;;;;;;18.93;54.33;101195.92;;;;-51
2020/11/09 08:16:15;;;;;;;6.44;5.15;;;;;;;18.94;54.43;101195.28;;;;-51
2020/11/09 08:19:15;;;;;;;6.05;4.86;;;;;;;18.96;54.46;101197.51;;;;-51
2020/11/09 08:22:15;;;;;;;6.55;4.77;;;;;;;18.97;54.51;101195.77;;;;-57
2020/11/09 08:25:15;;;;;;;5.12;4.62;;;;;;;18.99;54.59;101195.16;;;;-57
2020/11/09 08:28:15;;;;;;;5.49;4.70;;;;;;;19.00;54.62;101192.72;;;;-57
2020/11/09 08:31:15;;;;;;;5.23;4.73;;;;;;;19.00;54.61;101185.66;;;;-57
2020/11/09 08:34:15;;;;;;;5.33;4.62;;;;;;;19.01;54.63;101186.17;;;;-57
2020/11/09 08:37:15;;;;;;;5.06;4.56;;;;;;;19.02;54.65;101181.72;;;;-57
2020/11/09 08:40:15;;;;;;;5.36;4.63;;;;;;;19.03;54.67;101185.33;;;;-57
2020/11/09 08:43:15;;;;;;;4.91;4.48;;;;;;;19.03;54.72;101181.42;;;;-52
2020/11/09 08:46:15;;;;;;;5.73;4.57;;;;;;;19.04;55.12;101180.54;;;;-56
2020/11/09 08:49:15;;;;;;;7.24;4.35;;;;;;;19.06;55.17;101185.45;;;;-56
2020/11/09 08:52:15;;;;;;;6.55;4.55;;;;;;;19.09;55.37;101191.95;;;;-53
2020/11/09 08:55:15;;;;;;;4.92;4.42;;;;;;;19.11;55.51;101189.71;;;;-56
2020/11/09 08:58:15;;;;;;;5.26;4.19;;;;;;;19.15;55.60;101188.13;;;;-54
2020/11/09 09:01:15;;;;;;;5.45;4.53;;;;;;;19.19;55.77;101191.55;;;;-57
2020/11/09 09:04:15;;;;;;;7.31;4.14;;;;;;;19.22;56.05;101191.70;;;;-55
2020/11/09 09:07:27;;;;;;;7.12;4.11;;;;;;;19.25;55.73;101197.19;;;;-55
2020/11/09 09:10:15;;;;;;;4.81;4.31;;;;;;;19.27;55.90;101193.48;;;;-57
2020/11/09 09:13:15;;;;;;;4.79;4.33;;;;;;;19.31;55.81;101193.32;;;;-59
2020/11/09 09:16:15;;;;;;;4.89;4.34;;;;;;;19.34;55.92;101194.37;;;;-56
2020/11/09 09:19:15;;;;;;;5.21;4.10;;;;;;;19.39;55.73;101202.17;;;;-52
2020/11/09 09:22:15;;;;;;;4.82;4.34;;;;;;;19.41;55.56;101206.27;;;;-51
2020/11/09 09:25:15;;;;;;;5.28;4.19;;;;;;;19.43;55.32;101209.56;;;;-52
2020/11/09 09:28:15;;;;;;;4.73;3.91;;;;;;;19.46;55.31;101213.02;;;;-52
2020/11/09 09:31:15;;;;;;;4.51;4.06;;;;;;;19.47;55.24;101216.30;;;;-51
2020/11/09 09:34:15;;;;;;;4.17;3.76;;;;;;;19.50;55.28;101219.52;;;;-52
2020/11/09 09:37:15;;;;;;;5.07;3.95;;;;;;;19.53;55.32;101224.84;;;;-51
2020/11/09 09:40:15;;;;;;;4.71;3.99;;;;;;;19.58;55.67;101229.91;;;;-50
2020/11/09 09:43:15;;;;;;;7.25;4.35;;;;;;;19.59;55.68;101234.91;;;;-56
2020/11/09 09:46:15;;;;;;;5.21;4.07;;;;;;;19.62;55.34;101240.56;;;;-56
2020/11/09 09:49:15;;;;;;;8.44;4.19;;;;;;;19.66;55.24;101241.77;;;;-59
2020/11/09 09:52:15;;;;;;;5.29;4.10;;;;;;;19.69;55.35;101246.96;;;;-53
2020/11/09 09:55:15;;;;;;;6.16;4.07;;;;;;;19.72;55.11;101242.56;;;;-60
2020/11/09 09:58:15;;;;;;;4.47;4.03;;;;;;;19.75;55.19;101237.64;;;;-60
2020/11/09 10:01:15;;;;;;;7.70;4.03;;;;;;;19.78;55.30;101238.20;;;;-56
2020/11/09 10:04:15;;;;;;;6.01;3.97;;;;;;;19.81;55.39;101235.80;;;;-52
2020/11/09 10:07:15;;;;;;;4.09;3.69;;;;;;;19.83;55.30;101234.53;;;;-51
2020/11/09 10:10:15;;;;;;;5.78;3.77;;;;;;;19.86;55.41;101229.23;;;;-52
2020/11/09 10:13:15;;;;;;;5.11;3.95;;;;;;;19.88;55.42;101223.48;;;;-49
2020/11/09 10:16:15;;;;;;;4.63;3.95;;;;;;;19.89;55.34;101222.27;;;;-55
2020/11/09 10:19:15;;;;;;;5.31;4.13;;;;;;;19.92;55.48;101219.38;;;;-57
2020/11/09 10:22:15;;;;;;;6.47;4.18;;;;;;;19.94;55.54;101213.99;;;;-59
2020/11/09 10:25:15;;;;;;;5.21;4.05;;;;;;;19.96;55.47;101211.31;;;;-63
2020/11/09 10:28:15;;;;;;;4.28;3.88;;;;;;;19.97;55.54;101212.00;;;;-62
2020/11/09 10:31:15;;;;;;;4.82;4.00;;;;;;;19.98;55.09;101214.71;;;;-60
2020/11/09 10:34:15;;;;;;;4.66;4.11;;;;;;;20.01;55.30;101212.63;;;;-57
2020/11/09 10:37:15;;;;;;;5.39;3.97;;;;;;;20.04;55.41;101212.98;;;;-53
2020/11/09 10:40:15;;;;;;;6.00;3.67;;;;;;;20.06;54.95;101210.26;;;;-49
2020/11/09 10:43:15;;;;;;;4.63;3.93;;;;;;;20.07;55.05;101205.98;;;;-59
2020/11/09 10:46:15;;;;;;;5.56;4.01;;;;;;;20.09;55.18;101201.86;;;;-54
2020/11/09 10:49:15;;;;;;;4.76;4.01;;;;;;;20.12;55.27;101194.00;;;;-61
2020/11/09 10:52:15;;;;;;;5.17;3.85;;;;;;;20.12;54.93;101189.20;;;;-61
2020/11/09 10:55:15;;;;;;;4.23;3.83;;;;;;;20.13;55.19;101183.86;;;;-57
2020/11/09 10:58:15;;;;;;;5.39;3.94;;;;;;;20.16;55.33;101186.00;;;;-56
2020/11/09 11:01:15;;;;;;;4.31;3.91;;;;;;;20.18;55.11;101186.69;;;;-54
2020/11/09 11:04:15;;;;;;;5.15;4.01;;;;;;;20.19;55.18;101184.36;;;;-62
2020/11/09 11:07:15;;;;;;;4.75;3.79;;;;;;;20.22;55.12;101180.80;;;;-62
2020/11/09 11:10:15;;;;;;;6.95;3.89;;;;;;;20.24;55.09;101180.92;;;;-60
2020/11/09 11:13:15;;;;;;;4.89;3.80;;;;;;;20.26;54.65;101181.11;;;;-61
2020/11/09 11:16:15;;;;;;;4.32;3.79;;;;;;;20.27;55.03;101178.99;;;;-58
2020/11/09 11:19:15;;;;;;;6.53;3.69;;;;;;;20.27;55.19;101173.08;;;;-54
2020/11/09 11:22:15;;;;;;;4.39;3.55;;;;;;;20.29;55.07;101177.16;;;;-53
2020/11/09 11:25:15;;;;;;;4.25;3.85;;;;;;;20.31;55.08;101178.73;;;;-63
2020/11/09 11:28:15;;;;;;;5.05;3.89;;;;;;;20.31;54.92;101170.51;;;;-62
2020/11/09 11:31:15;;;;;;;4.40;3.81;;;;;;;20.33;55.11;101169.48;;;;-58
2020/11/09 11:34:15;;;;;;;4.14;3.74;;;;;;;20.34;55.08;101164.87;;;;-55
2020/11/09 11:37:15;;;;;;;4.07;3.67;;;;;;;20.35;55.01;101162.91;;;;-58
2020/11/09 11:40:15;;;;;;;4.73;3.60;;;;;;;20.36;55.02;101157.33;;;;-51
2020/11/09 11:43:15;;;;;;;4.35;3.61;;;;;;;20.37;54.93;101159.36;;;;-50
2020/11/09 11:46:15;;;;;;;4.32;3.75;;;;;;;20.39;55.07;101156.95;;;;-57
2020/11/09 11:49:15;;;;;;;4.40;3.92;;;;;;;20.39;54.96;101158.09;;;;-64
2020/11/09 11:52:15;;;;;;;4.62;3.91;;;;;;;20.42;54.83;101150.78;;;;-57
2020/11/09 11:55:15;;;;;;;11.14;4.12;;;;;;;20.44;54.96;101149.67;;;;-46
2020/11/09 11:58:15;;;;;;;8.22;3.75;;;;;;;20.48;54.87;101142.73;;;;-52
2020/11/09 12:01:15;;;;;;;9.03;3.84;;;;;;;20.47;54.65;101137.68;;;;-53
2020/11/09 12:04:15;;;;;;;7.27;3.63;;;;;;;20.48;54.70;101131.08;;;;-53
2020/11/09 12:07:15;;;;;;;7.65;3.67;;;;;;;20.47;54.67;101130.35;;;;-53
2020/11/09 12:10:15;;;;;;;7.23;3.58;;;;;;;20.47;54.65;101129.21;;;;-57
2020/11/09 12:13:15;;;;;;;6.92;3.49;;;;;;;20.49;54.59;101127.04;;;;-53
2020/11/09 12:16:15;;;;;;;5.39;3.56;;;;;;;20.49;54.58;101127.61;;;;-57
2020/11/09 12:19:15;;;;;;;6.10;3.29;;;;;;;20.48;54.53;101122.48;;;;-57
2020/11/09 12:22:15;;;;;;;4.22;3.36;;;;;;;20.50;54.64;101122.64;;;;-57
2020/11/09 12:25:15;;;;;;;5.35;3.43;;;;;;;20.49;54.62;101119.95;;;;-64
2020/11/09 12:28:15;;;;;;;6.14;3.30;;;;;;;20.50;54.61;101119.30;;;;-57
2020/11/09 12:31:15;;;;;;;4.64;3.39;;;;;;;20.51;54.60;101122.67;;;;-57
2020/11/09 12:34:15;;;;;;;4.85;3.36;;;;;;;20.51;54.60;101119.58;;;;-57
2020/11/09 12:37:15;;;;;;;3.83;3.32;;;;;;;20.50;54.55;101118.59;;;;-57
2020/11/09 12:40:15;;;;;;;7.07;3.51;;;;;;;20.51;54.64;101113.71;;;;-63
2020/11/09 12:43:15;;;;;;;3.95;3.22;;;;;;;20.51;54.63;101110.22;;;;-57
2020/11/09 12:46:15;;;;;;;4.98;3.19;;;;;;;20.51;54.60;101112.90;;;;-58
2020/11/09 12:49:15;;;;;;;8.73;3.49;;;;;;;20.52;54.56;101112.11;;;;-57
2020/11/09 12:52:15;;;;;;;4.97;3.19;;;;;;;20.53;54.63;101105.02;;;;-57
2020/11/09 12:55:16;;;;;;;3.84;3.29;;;;;;;20.54;54.63;101103.72;;;;-53
2020/11/09 12:58:15;;;;;;;4.23;3.52;;;;;;;20.55;54.64;101102.61;;;;-53
2020/11/09 13:01:15;;;;;;;5.05;3.30;;;;;;;20.56;54.64;101104.72;;;;-53
2020/11/09 13:04:15;;;;;;;3.87;3.22;;;;;;;20.57;54.69;101101.33;;;;-53
2020/11/09 13:07:15;;;;;;;4.06;3.13;;;;;;;20.58;54.69;101095.01;;;;-53
2020/11/09 13:10:15;;;;;;;3.32;3.02;;;;;;;20.59;54.69;101094.22;;;;-53
2020/11/09 13:13:15;;;;;;;5.22;3.29;;;;;;;20.60;54.66;101094.14;;;;-58
2020/11/09 13:16:15;;;;;;;4.94;3.29;;;;;;;20.61;54.67;101093.59;;;;-57
2020/11/09 13:19:15;;;;;;;3.40;3.10;;;;;;;20.62;54.59;101092.45;;;;-57
2020/11/09 13:22:15;;;;;;;4.17;3.22;;;;;;;20.64;54.66;101091.91;;;;-58
2020/11/09 13:25:15;;;;;;;3.59;3.23;;;;;;;20.64;54.67;101086.77;;;;-57
2020/11/09 13:28:25;;;;;;;5.24;3.35;;;;;;;20.64;54.74;101082.86;;;;-49
2020/11/09 13:31:15;;;;;;;5.92;3.42;;;;;;;20.66;54.82;101082.23;;;;-52
2020/11/09 13:34:15;;;;;;;4.36;3.57;;;;;;;20.67;54.93;101085.41;;;;-50
2020/11/09 13:37:15;;;;;;;4.54;3.32;;;;;;;20.67;54.98;101082.75;;;;-49
2020/11/09 13:40:15;;;;;;;4.99;3.09;;;;;;;20.69;55.04;101085.22;;;;-58
2020/11/09 13:43:16;;;;;;;5.21;3.33;;;;;;;20.68;54.70;101083.97;;;;-56
2020/11/09 13:46:15;;;;;;;5.87;3.21;;;;;;;20.69;54.92;101088.31;;;;-62
2020/11/09 13:49:15;;;;;;;6.89;3.37;;;;;;;20.70;54.99;101092.30;;;;-55
2020/11/09 13:52:15;;;;;;;5.23;3.54;;;;;;;20.70;54.84;101095.64;;;;-59
2020/11/09 13:55:15;;;;;;;6.12;3.53;;;;;;;20.66;54.19;101091.77;;;;-61
2020/11/09 13:58:15;;;;;;;7.40;3.66;;;;;;;20.67;54.35;101091.92;;;;-60
2020/11/09 14:01:15;;;;;;;6.56;3.49;;;;;;;20.68;54.48;101092.77;;;;-59
2020/11/09 14:04:15;;;;;;;5.00;3.33;;;;;;;20.68;54.44;101092.03;;;;-60
2020/11/09 14:07:15;;;;;;;4.77;3.42;;;;;;;20.70;54.44;101094.17;;;;-59
2020/11/09 14:10:15;;;;;;;4.19;3.07;;;;;;;20.71;54.52;101088.63;;;;-59
2020/11/09 14:13:15;;;;;;;5.21;3.21;;;;;;;20.70;54.44;101093.61;;;;-60
2020/11/09 14:16:15;;;;;;;5.45;3.27;;;;;;;20.71;54.46;101090.42;;;;-52
2020/11/09 14:19:15;;;;;;;5.48;3.39;;;;;;;20.71;54.45;101089.86;;;;-51
2020/11/09 14:22:15;;;;;;;3.63;3.18;;;;;;;20.70;54.44;101094.58;;;;-56
2020/11/09 14:25:15;;;;;;;5.13;3.23;;;;;;;20.70;54.52;101098.17;;;;-54
2020/11/09 14:28:15;;;;;;;4.63;3.13;;;;;;;20.71;54.48;101102.40;;;;-59
2020/11/09 14:31:15;;;;;;;4.01;3.27;;;;;;;20.70;54.49;101101.27;;;;-60
2020/11/09 14:34:15;;;;;;;4.43;3.20;;;;;;;20.71;54.46;101102.32;;;;-56
2020/11/09 14:37:15;;;;;;;4.93;3.00;;;;;;;20.70;54.50;101103.05;;;;-51
2020/11/09 14:40:15;;;;;;;5.17;3.11;;;;;;;20.71;54.51;101104.92;;;;-54
2020/11/09 14:43:15;;;;;;;3.42;2.89;;;;;;;20.71;54.51;101109.33;;;;-51
2020/11/09 14:46:15;;;;;;;4.51;3.18;;;;;;;20.70;54.44;101107.45;;;;-51
2020/11/09 14:49:15;;;;;;;3.51;3.10;;;;;;;20.70;54.50;101105.58;;;;-51
2020/11/09 14:52:15;;;;;;;3.31;3.01;;;;;;;20.70;54.53;101110.95;;;;-54
2020/11/09 14:55:15;;;;;;;3.33;3.03;;;;;;;20.69;54.52;101108.19;;;;-55
2020/11/09 14:58:15;;;;;;;3.94;2.91;;;;;;;20.69;54.53;101108.52;;;;-56
2020/11/09 15:01:15;;;;;;;3.71;3.00;;;;;;;20.70;54.53;101109.73;;;;-56
2020/11/09 15:04:15;;;;;;;5.58;3.09;;;;;;;20.70;54.51;101111.69;;;;-56
2020/11/09 15:07:15;;;;;;;3.24;2.85;;;;;;;20.69;54.54;101114.22;;;;-54
2020/11/09 15:10:15;;;;;;;4.80;3.07;;;;;;;20.69;54.53;101119.31;;;;-54
2020/11/09 15:13:15;;;;;;;4.93;2.99;;;;;;;20.69;54.63;101117.69;;;;-56
2020/11/09 15:16:15;;;;;;;4.05;3.09;;;;;;;20.67;54.71;101119.23;;;;-58
2020/11/09 15:19:15;;;;;;;4.92;3.33;;;;;;;20.67;54.65;101120.63;;;;-58
2020/11/09 15:22:15;;;;;;;3.90;3.30;;;;;;;20.65;54.28;101121.98;;;;-57
2020/11/09 15:25:22;;;;;;;4.13;3.15;;;;;;;20.65;54.46;101118.97;;;;-56
2020/11/09 15:28:15;;;;;;;4.60;3.46;;;;;;;20.68;54.81;101117.20;;;;-51
2020/11/09 15:31:15;;;;;;;4.15;3.30;;;;;;;20.69;54.95;101113.23;;;;-54
2020/11/09 15:34:15;;;;;;;5.45;3.19;;;;;;;20.72;55.03;101112.94;;;;-51
2020/11/09 15:37:15;;;;;;;5.33;3.25;;;;;;;20.74;55.00;101116.70;;;;-51
2020/11/09 15:40:15;;;;;;;3.95;3.37;;;;;;;20.75;55.07;101119.17;;;;-57
2020/11/09 15:43:19;;;;;;;4.45;3.43;;;;;;;20.76;54.91;101117.95;;;;-49
2020/11/09 15:50:15;;;;;;;5.30;3.40;;;;;;;20.78;55.02;101119.77;;;;-53
2020/11/09 15:53:15;;;;;;;4.61;3.15;;;;;;;20.81;55.11;101118.89;;;;-56
2020/11/09 15:56:15;;;;;;;7.61;3.40;;;;;;;20.82;55.08;101120.63;;;;-50
2020/11/09 15:59:15;;;;;;;3.74;3.24;;;;;;;20.82;55.05;101120.88;;;;-58
2020/11/09 16:02:15;;;;;;;5.86;3.35;;;;;;;20.83;54.96;101121.28;;;;-59
2020/11/09 16:05:15;;;;;;;4.69;3.55;;;;;;;20.83;54.99;101119.81;;;;-55
2020/11/09 16:08:15;;;;;;;6.11;3.34;;;;;;;20.84;55.03;101121.22;;;;-57
2020/11/09 16:11:15;;;;;;;4.78;3.60;;;;;;;20.83;54.67;101119.81;;;;-56
2020/11/09 16:14:15;;;;;;;4.18;3.31;;;;;;;20.82;54.64;101125.03;;;;-51
2020/11/09 16:17:15;;;;;;;7.30;3.70;;;;;;;20.83;54.92;101128.86;;;;-57
2020/11/09 16:20:15;;;;;;;6.68;3.53;;;;;;;20.85;55.00;101128.96;;;;-52
2020/11/09 16:23:15;;;;;;;4.53;3.34;;;;;;;20.87;55.08;101132.89;;;;-52
2020/11/09 16:26:15;;;;;;;5.97;3.45;;;;;;;20.89;55.09;101140.33;;;;-51
2020/11/09 16:29:15;;;;;;;7.00;3.39;;;;;;;20.90;55.16;101139.79;;;;-46
2020/11/09 16:32:15;;;;;;;4.28;3.49;;;;;;;20.92;55.30;101142.66;;;;-56
2020/11/09 16:35:15;;;;;;;6.29;3.31;;;;;;;20.93;55.29;101143.23;;;;-61
2020/11/09 16:38:15;;;;;;;4.40;3.27;;;;;;;20.96;55.38;101143.00;;;;-51
2020/11/09 16:41:15;;;;;;;4.90;3.14;;;;;;;20.97;55.35;101147.02;;;;-51
2020/11/09 16:44:15;;;;;;;3.79;3.09;;;;;;;20.99;55.40;101151.77;;;;-53
2020/11/09 16:47:15;;;;;;;4.03;3.33;;;;;;;21.01;55.41;101154.66;;;;-59
2020/11/09 16:50:15;;;;;;;5.31;3.38;;;;;;;21.03;55.30;101158.75;;;;-51